Time;durP1;ratioP1;P1;durP2;ratioP2;P2;SDS_P1;SDS_P2;PMS_P1;PMS_P2;Temp;Humidity;BMP_temperature;BMP_pressure;BME280_temperature;BME280_humidity;BME280_pressure;Samples;Min_cycle;Max_cycle;Signal;HPM_P1;HPM_P2
2021/12/24 00:02:14;;;;;;;5.32;3.88;;;21.90;47.30;;;;;;5019392;28;20056;-74
2021/12/24 00:04:40;;;;;;;4.70;3.58;;;22.00;47.30;;;;;;5011376;28;20045;-73
2021/12/24 00:07:06;;;;;;;9.05;4.05;;;22.00;47.30;;;;;;5016252;28;20156;-73
2021/12/24 00:09:33;;;;;;;5.57;4.00;;;22.00;47.30;;;;;;5019137;28;20413;-71
2021/12/24 00:12:02;;;;;;;5.97;3.80;;;22.00;47.30;;;;;;5019999;28;20037;-74
2021/12/24 00:14:30;;;;;;;6.43;3.92;;;22.00;47.30;;;;;;5015116;28;20128;-73
2021/12/24 00:17:00;;;;;;;6.00;3.95;;;22.00;47.30;;;;;;5014442;28;20041;-74
2021/12/24 00:35:35;;;;;;;4.70;3.67;;;22.00;47.20;;;;;;5013407;28;20038;-73
2021/12/24 00:38:08;;;;;;;4.35;3.30;;;21.90;47.10;;;;;;5015348;28;20069;-72
2021/12/24 00:40:38;;;;;;;4.70;3.53;;;21.90;47.10;;;;;;5020005;28;20564;-71
2021/12/24 00:43:04;;;;;;;5.15;3.60;;;22.00;47.20;;;;;;5017329;28;20040;-74
2021/12/24 00:45:33;;;;;;;5.07;3.70;;;22.00;47.20;;;;;;5017884;28;20041;-74
2021/12/24 00:48:00;;;;;;;4.57;3.30;;;22.00;47.20;;;;;;5011269;28;20519;-73
2021/12/24 00:50:35;;;;;;;4.65;3.40;;;22.00;47.20;;;;;;5018826;28;20505;-73
2021/12/24 00:55:02;;;;;;;4.78;3.40;;;22.00;47.20;;;;;;5014520;28;20159;-74
2021/12/24 00:55:49;;;;;;;;;;;22.00;47.20;;;;;;5014404;28;20085;-73
2021/12/24 00:58:16;;;;;;;3.88;3.00;;;22.00;47.10;;;;;;5018937;28;19925;-74
2021/12/24 01:00:42;;;;;;;4.85;3.50;;;22.00;47.10;;;;;;5016160;28;20060;-73
2021/12/24 01:03:11;;;;;;;5.18;3.33;;;22.00;47.10;;;;;;5020442;28;20034;-68
2021/12/24 01:05:38;;;;;;;4.40;3.10;;;22.00;47.20;;;;;;5013704;28;20030;-73
2021/12/24 01:08:05;;;;;;;4.15;3.20;;;22.00;47.20;;;;;;5015785;28;20110;-68
2021/12/24 01:10:46;;;;;;;6.32;3.28;;;22.00;47.20;;;;;;5015133;28;20144;-74
2021/12/24 01:13:13;;;;;;;4.88;3.53;;;22.00;47.20;;;;;;5014607;28;20076;-73
2021/12/24 01:15:50;;;;;;;4.03;3.20;;;22.00;47.20;;;;;;5010952;28;20056;-74
2021/12/24 01:18:36;;;;;;;3.88;2.83;;;22.00;47.20;;;;;;5010810;28;20046;-72
2021/12/24 01:21:20;;;;;;;3.65;2.97;;;22.00;47.20;;;;;;5019778;28;20057;-75
2021/12/24 01:26:23;;;;;;;4.75;3.33;;;22.00;47.10;;;;;;5013334;28;20087;-73
2021/12/24 01:29:20;;;;;;;4.15;3.03;;;22.00;47.10;;;;;;5019837;28;20046;-74
2021/12/24 01:42:46;;;;;;;3.70;2.85;;;22.00;47.20;;;;;;5016324;28;20420;-71
2021/12/24 01:45:25;;;;;;;3.97;2.47;;;22.00;47.20;;;;;;5011694;28;20045;-74
2021/12/24 01:47:53;;;;;;;2.85;2.38;;;22.00;47.20;;;;;;5015459;28;20059;-74
2021/12/24 01:50:21;;;;;;;3.10;2.63;;;22.00;47.20;;;;;;5014925;28;20133;-74
2021/12/24 01:52:49;;;;;;;4.93;2.72;;;21.90;48.00;;;;;;5020083;28;20046;-74
2021/12/24 01:55:15;;;;;;;3.75;2.70;;;21.90;47.20;;;;;;5016366;28;20141;-74
2021/12/24 01:57:42;;;;;;;2.92;2.60;;;21.90;47.90;;;;;;5011870;28;20136;-73
2021/12/24 02:00:13;;;;;;;3.13;2.58;;;21.90;47.20;;;;;;5010466;28;20061;-74
2021/12/24 02:02:38;;;;;;;2.63;2.22;;;21.90;47.20;;;;;;5017467;28;20047;-74
2021/12/24 02:05:04;;;;;;;3.58;2.50;;;21.90;47.20;;;;;;5013565;28;20061;-70
2021/12/24 02:07:30;;;;;;;3.88;2.30;;;21.90;48.00;;;;;;4995771;28;20854;-72
2021/12/24 02:09:56;;;;;;;3.22;2.15;;;21.90;47.20;;;;;;5012913;28;20050;-73
2021/12/24 02:12:24;;;;;;;3.10;2.30;;;21.90;47.30;;;;;;5013009;28;20490;-72
2021/12/24 02:14:54;;;;;;;3.47;2.35;;;21.90;47.20;;;;;;5017261;28;20048;-74
2021/12/24 02:30:45;;;;;;;2.83;2.20;;;21.90;47.20;;;;;;5015138;28;20140;-74
2021/12/24 02:33:11;;;;;;;2.50;2.00;;;21.90;48.10;;;;;;5013693;28;20160;-72
2021/12/24 02:35:37;;;;;;;2.58;1.88;;;21.90;47.20;;;;;;5016569;28;20053;-73
2021/12/24 02:38:04;;;;;;;2.53;1.80;;;21.90;47.30;;;;;;5016578;28;20116;-73
2021/12/24 02:40:31;;;;;;;2.45;2.00;;;21.90;47.30;;;;;;5013665;28;21093;-74
2021/12/24 02:42:57;;;;;;;2.78;2.20;;;21.90;47.30;;;;;;5014260;28;20092;-73
2021/12/24 02:45:27;;;;;;;2.45;1.98;;;22.00;47.30;;;;;;5010992;28;20132;-74
2021/12/24 02:48:13;;;;;;;2.60;1.80;;;21.90;47.30;;;;;;5011707;28;20041;-74
2021/12/24 02:56:13;;;;;;;2.63;1.67;;;21.90;47.30;;;;;;5018062;28;20046;-74
2021/12/24 02:58:45;;;;;;;2.40;1.80;;;21.90;47.30;;;;;;5021359;28;20053;-73
2021/12/24 03:01:13;;;;;;;2.38;1.92;;;21.90;47.30;;;;;;5018167;28;20582;-73
2021/12/24 03:03:39;;;;;;;2.95;2.20;;;21.90;47.30;;;;;;5015315;28;20054;-73
2021/12/24 03:06:06;;;;;;;2.00;1.70;;;21.90;47.30;;;;;;5018179;28;20041;-70
2021/12/24 03:08:32;;;;;;;3.10;1.63;;;22.00;47.30;;;;;;5018539;28;20033;-73
2021/12/24 03:10:59;;;;;;;2.13;1.58;;;22.00;47.40;;;;;;5016538;28;20049;-73
2021/12/24 03:13:26;;;;;;;2.22;1.83;;;22.00;47.30;;;;;;5019184;28;20058;-71
2021/12/24 03:15:55;;;;;;;1.97;1.50;;;22.00;47.30;;;;;;5011408;28;20046;-72
2021/12/24 03:18:26;;;;;;;1.98;1.50;;;22.00;47.40;;;;;;5013482;28;20117;-70
2021/12/24 03:21:00;;;;;;;2.08;1.70;;;22.00;47.30;;;;;;5012867;28;20045;-67
2021/12/24 03:23:36;;;;;;;1.85;1.60;;;22.00;47.30;;;;;;5016617;28;20398;-71
2021/12/24 03:26:02;;;;;;;1.60;1.40;;;22.00;47.30;;;;;;5019569;28;20037;-70
2021/12/24 03:28:28;;;;;;;1.90;1.50;;;22.00;47.40;;;;;;5018300;28;20095;-68
2021/12/24 03:30:54;;;;;;;2.40;1.70;;;22.00;47.30;;;;;;5017146;28;20041;-72
2021/12/24 03:33:19;;;;;;;1.90;1.48;;;22.00;47.30;;;;;;5012731;28;20035;-69
2021/12/24 03:35:45;;;;;;;1.52;1.40;;;22.00;47.40;;;;;;5016117;28;20477;-70
2021/12/24 03:38:10;;;;;;;2.05;1.70;;;22.00;47.40;;;;;;5020328;28;20041;-72
2021/12/24 03:40:37;;;;;;;1.90;1.60;;;22.00;47.30;;;;;;5016188;28;20046;-72
2021/12/24 03:43:03;;;;;;;2.10;1.50;;;22.00;47.50;;;;;;5012123;28;20044;-72
2021/12/24 03:45:42;;;;;;;1.55;1.38;;;22.00;47.30;;;;;;5022213;28;20067;-72
2021/12/24 03:48:17;;;;;;;1.75;1.35;;;22.00;47.30;;;;;;5016279;28;20041;-73
2021/12/24 03:50:53;;;;;;;1.70;1.35;;;22.00;47.40;;;;;;5018964;28;20367;-74
2021/12/24 03:56:03;;;;;;;1.88;1.50;;;22.00;47.40;;;;;;5021869;28;20048;-73
2021/12/24 03:58:29;;;;;;;1.65;1.33;;;21.90;47.30;;;;;;5016858;28;20030;-74
2021/12/24 04:00:55;;;;;;;1.65;1.27;;;22.00;47.40;;;;;;5013584;28;20060;-73
2021/12/24 04:03:20;;;;;;;1.65;1.40;;;22.00;47.30;;;;;;5018331;28;20052;-73
2021/12/24 04:05:46;;;;;;;1.48;1.25;;;22.00;47.30;;;;;;5015204;28;20071;-73
2021/12/24 04:08:13;;;;;;;1.50;1.27;;;22.00;47.30;;;;;;5017066;28;20131;-72
2021/12/24 04:10:41;;;;;;;1.40;1.27;;;22.00;47.30;;;;;;5015690;28;20044;-70
2021/12/24 04:13:09;;;;;;;1.70;1.35;;;22.00;47.30;;;;;;5015801;28;20050;-73
2021/12/24 04:15:36;;;;;;;2.03;1.63;;;22.00;47.30;;;;;;5015952;28;20052;-74
2021/12/24 04:18:13;;;;;;;1.85;1.40;;;22.00;47.30;;;;;;5016545;28;20042;-73
2021/12/24 04:26:08;;;;;;;1.52;1.17;;;22.00;47.30;;;;;;5023986;28;20839;-72
2021/12/24 04:28:34;;;;;;;1.45;1.20;;;22.00;47.30;;;;;;5013117;28;20124;-73
2021/12/24 04:31:01;;;;;;;2.35;1.30;;;22.00;47.30;;;;;;5021537;28;20040;-72
2021/12/24 04:33:34;;;;;;;1.58;1.33;;;22.00;47.30;;;;;;5019443;28;20076;-74
2021/12/24 04:36:32;;;;;;;2.05;1.40;;;22.00;47.30;;;;;;5017246;28;20117;-73
2021/12/24 05:01:11;;;;;;;1.20;1.10;;;22.00;47.50;;;;;;5019084;28;20077;-72
2021/12/24 05:03:40;;;;;;;1.27;1.17;;;22.00;47.40;;;;;;5011184;28;20061;-73
2021/12/24 05:08:52;;;;;;;1.50;1.25;;;22.00;47.50;;;;;;5016532;28;20054;-73
2021/12/24 05:11:19;;;;;;;1.55;1.23;;;22.00;47.50;;;;;;5012516;28;20076;-73
2021/12/24 05:13:46;;;;;;;1.75;1.40;;;22.00;47.50;;;;;;5017455;28;20115;-72
2021/12/24 05:16:25;;;;;;;2.13;1.20;;;22.00;47.50;;;;;;5018333;28;20093;-72
2021/12/24 05:21:33;;;;;;;1.80;1.40;;;22.00;47.50;;;;;;5014753;28;20041;-73
2021/12/24 05:24:03;;;;;;;1.63;1.23;;;22.00;47.50;;;;;;5012635;28;20040;-67
2021/12/24 05:26:30;;;;;;;1.80;1.40;;;22.00;47.50;;;;;;5012249;28;20042;-73
2021/12/24 05:28:56;;;;;;;1.50;1.20;;;22.00;47.50;;;;;;5017448;28;20041;-71
2021/12/24 05:31:22;;;;;;;2.40;1.30;;;22.00;47.60;;;;;;5017294;28;20116;-72
2021/12/24 05:33:48;;;;;;;1.60;1.10;;;22.00;47.50;;;;;;5013818;28;20049;-70
2021/12/24 05:36:14;;;;;;;1.58;1.15;;;22.00;47.50;;;;;;5013704;28;20045;-74
2021/12/24 05:38:39;;;;;;;1.13;1.02;;;22.00;47.60;;;;;;5005562;28;20045;-71
2021/12/24 05:41:05;;;;;;;1.70;1.15;;;22.00;47.50;;;;;;5011926;28;20042;-73
2021/12/24 05:43:31;;;;;;;1.55;1.25;;;22.00;47.50;;;;;;5014117;28;20077;-74
2021/12/24 05:45:59;;;;;;;1.20;1.08;;;22.00;47.50;;;;;;5018904;28;20065;-68
2021/12/24 05:48:25;;;;;;;1.40;1.00;;;22.00;47.60;;;;;;5016812;28;20049;-73
2021/12/24 05:50:50;;;;;;;2.75;1.33;;;22.00;47.60;;;;;;5016155;28;20034;-73
2021/12/24 05:53:16;;;;;;;1.80;1.30;;;22.00;47.60;;;;;;5015940;28;20090;-70
2021/12/24 05:55:42;;;;;;;2.25;1.40;;;22.00;47.60;;;;;;5014875;28;20037;-72
2021/12/24 05:58:08;;;;;;;1.20;1.10;;;22.00;48.40;;;;;;5017407;28;20037;-73
2021/12/24 06:00:39;;;;;;;2.17;1.50;;;22.00;47.60;;;;;;5027586;28;20048;-73
2021/12/24 06:03:07;;;;;;;3.50;1.50;;;21.90;47.60;;;;;;5019223;28;20049;-73
2021/12/24 06:05:34;;;;;;;2.22;1.10;;;21.90;47.60;;;;;;5016634;28;20062;-73
2021/12/24 06:08:01;;;;;;;2.15;1.35;;;21.90;47.60;;;;;;5010897;28;20585;-71
2021/12/24 06:10:27;;;;;;;2.42;1.52;;;21.90;47.60;;;;;;5017892;28;20125;-74
2021/12/24 06:12:52;;;;;;;1.67;1.20;;;21.90;47.60;;;;;;5013557;28;20132;-73
2021/12/24 06:15:24;;;;;;;1.95;1.10;;;21.90;47.70;;;;;;5009868;28;20669;-71
2021/12/24 06:17:53;;;;;;;1.88;1.00;;;21.90;47.60;;;;;;5009324;28;20060;-73
2021/12/24 06:20:20;;;;;;;1.50;1.05;;;21.90;47.70;;;;;;5015258;28;20060;-73
2021/12/24 06:22:46;;;;;;;1.55;1.27;;;21.90;47.70;;;;;;5020999;28;20054;-71
2021/12/24 06:25:11;;;;;;;1.42;1.15;;;21.90;47.70;;;;;;5011440;28;20048;-73
2021/12/24 06:27:40;;;;;;;1.50;1.20;;;21.90;47.70;;;;;;5016484;28;20912;-73
2021/12/24 06:30:07;;;;;;;3.70;1.48;;;21.90;47.70;;;;;;5017741;28;20038;-73
2021/12/24 06:32:32;;;;;;;3.00;1.40;;;21.90;47.70;;;;;;5016806;28;20135;-72
2021/12/24 06:34:58;;;;;;;2.80;1.20;;;21.90;47.70;;;;;;5015857;28;20117;-72
2021/12/24 06:37:24;;;;;;;2.05;1.13;;;21.90;47.80;;;;;;5019051;28;20033;-73
2021/12/24 06:39:51;;;;;;;2.03;1.20;;;21.90;47.70;;;;;;5016607;28;20056;-73
2021/12/24 06:42:18;;;;;;;3.53;1.42;;;21.90;47.80;;;;;;5019198;28;20038;-72
2021/12/24 06:44:44;;;;;;;1.85;1.20;;;21.90;47.80;;;;;;5017655;28;20060;-72
2021/12/24 06:47:09;;;;;;;1.80;1.20;;;21.90;47.80;;;;;;5010953;28;20063;-70
2021/12/24 06:49:37;;;;;;;2.15;1.13;;;21.90;47.80;;;;;;5019446;28;20049;-73
2021/12/24 06:52:03;;;;;;;3.80;1.35;;;21.90;47.80;;;;;;5017599;28;20057;-74
2021/12/24 06:54:31;;;;;;;2.05;1.10;;;21.90;47.80;;;;;;5016782;28;20053;-72
2021/12/24 06:56:57;;;;;;;2.13;1.23;;;21.90;47.80;;;;;;5014441;28;20041;-72
2021/12/24 06:59:23;;;;;;;2.08;1.20;;;21.90;47.80;;;;;;5002069;28;20045;-73
2021/12/24 07:01:49;;;;;;;1.85;1.10;;;21.90;47.80;;;;;;5024023;28;20064;-73
2021/12/24 07:04:14;;;;;;;2.47;1.10;;;21.90;47.80;;;;;;5015512;28;20053;-72
2021/12/24 07:06:45;;;;;;;2.35;1.20;;;21.90;47.80;;;;;;4995039;28;20049;-79
2021/12/24 07:09:12;;;;;;;3.30;1.30;;;21.90;48.00;;;;;;5002511;28;20120;-76
2021/12/24 07:11:38;;;;;;;2.42;1.30;;;21.90;48.20;;;;;;5019768;28;20038;-72
2021/12/24 07:14:03;;;;;;;2.45;1.27;;;21.90;48.20;;;;;;5013548;28;20398;-74
2021/12/24 07:16:29;;;;;;;3.90;1.33;;;21.90;48.20;;;;;;5043142;28;20076;-73
2021/12/24 07:18:54;;;;;;;2.40;1.20;;;21.90;48.20;;;;;;5026013;28;20235;-69
2021/12/24 07:21:20;;;;;;;3.55;1.33;;;21.90;48.00;;;;;;5019893;28;20049;-69
2021/12/24 07:23:46;;;;;;;4.15;1.35;;;22.00;48.00;;;;;;5018386;28;20042;-71
2021/12/24 07:26:11;;;;;;;5.05;1.33;;;22.00;48.00;;;;;;5014696;28;20045;-71
2021/12/24 07:28:42;;;;;;;2.70;1.33;;;22.00;48.20;;;;;;5014046;28;20052;-75
2021/12/24 07:31:07;;;;;;;4.85;0.93;;;22.00;48.40;;;;;;5020880;28;20046;-72
2021/12/24 07:33:33;;;;;;;3.58;1.40;;;22.00;48.40;;;;;;5017438;28;20078;-72
2021/12/24 07:35:59;;;;;;;4.82;1.50;;;22.00;48.90;;;;;;5014263;28;20042;-74
2021/12/24 07:38:24;;;;;;;2.40;1.20;;;22.00;48.60;;;;;;5017450;28;20049;-71
2021/12/24 07:40:50;;;;;;;4.57;1.40;;;22.00;48.70;;;;;;5023403;28;20057;-71
2021/12/24 07:43:15;;;;;;;4.90;1.50;;;22.00;48.90;;;;;;5036065;28;20771;-75
2021/12/24 07:45:43;;;;;;;7.15;1.65;;;22.00;48.90;;;;;;5016628;28;20045;-73
2021/12/24 07:48:14;;;;;;;2.07;1.30;;;22.10;49.00;;;;;;5015226;28;20054;-75
2021/12/24 07:53:13;;;;;;;3.83;1.10;;;22.10;49.60;;;;;;5013765;28;20115;-74
2021/12/24 07:55:39;;;;;;;3.88;1.33;;;22.10;49.20;;;;;;5015936;28;20049;-75
2021/12/24 07:58:06;;;;;;;3.90;1.30;;;22.10;49.20;;;;;;5017773;28;20412;-76
2021/12/24 08:00:33;;;;;;;7.75;1.55;;;22.10;49.20;;;;;;5022126;28;20112;-74
2021/12/24 08:03:01;;;;;;;3.85;1.38;;;22.10;49.20;;;;;;5002135;28;20077;-77
2021/12/24 08:05:26;;;;;;;5.28;1.65;;;22.10;49.20;;;;;;5018206;28;20057;-74
2021/12/24 08:07:54;;;;;;;3.28;1.40;;;22.10;49.30;;;;;;5021017;28;20057;-71
2021/12/24 08:10:21;;;;;;;3.97;1.50;;;22.10;49.40;;;;;;5020724;28;20037;-73
2021/12/24 08:12:49;;;;;;;5.90;1.83;;;22.10;49.30;;;;;;5014751;28;20141;-74
2021/12/24 08:15:16;;;;;;;3.85;1.40;;;22.10;49.30;;;;;;5016294;28;20054;-72
2021/12/24 08:17:42;;;;;;;3.33;1.30;;;22.10;49.40;;;;;;5018007;28;20045;-73
2021/12/24 08:20:08;;;;;;;2.85;1.20;;;22.10;49.40;;;;;;5020593;28;20374;-74
2021/12/24 08:22:34;;;;;;;3.97;1.30;;;22.10;49.30;;;;;;5019623;28;20048;-76
2021/12/24 08:25:00;;;;;;;6.78;1.25;;;22.10;49.30;;;;;;5020858;28;20041;-78
2021/12/24 08:27:26;;;;;;;4.18;1.27;;;22.10;49.30;;;;;;5013154;28;20054;-73
2021/12/24 08:29:52;;;;;;;2.95;1.40;;;22.10;49.30;;;;;;5017945;28;20132;-74
2021/12/24 08:32:20;;;;;;;3.45;1.40;;;22.10;49.40;;;;;;5016322;28;20052;-71
2021/12/24 08:34:47;;;;;;;7.80;1.40;;;22.10;49.40;;;;;;5014566;28;20037;-70
2021/12/24 08:37:12;;;;;;;3.67;1.35;;;22.10;49.50;;;;;;5021150;28;20042;-73
2021/12/24 08:39:38;;;;;;;3.92;1.70;;;22.10;49.50;;;;;;5022681;28;20836;-75
2021/12/24 08:42:04;;;;;;;4.07;1.60;;;22.10;49.50;;;;;;5015260;28;20050;-76
2021/12/24 08:44:34;;;;;;;3.17;1.30;;;22.10;49.50;;;;;;5014141;28;20146;-77
2021/12/24 08:47:01;;;;;;;5.85;1.60;;;22.10;49.50;;;;;;5019021;28;20059;-77
2021/12/24 08:49:27;;;;;;;2.92;1.30;;;22.10;49.60;;;;;;5016162;28;20244;-75
2021/12/24 08:51:54;;;;;;;3.67;1.25;;;22.10;49.60;;;;;;5017057;28;20041;-69
2021/12/24 08:54:21;;;;;;;6.18;1.40;;;22.10;49.60;;;;;;5015346;28;20034;-74
2021/12/24 08:56:47;;;;;;;2.47;1.27;;;22.10;49.60;;;;;;5018568;28;20041;-74
2021/12/24 08:59:13;;;;;;;3.35;1.38;;;22.10;49.70;;;;;;5020729;28;20057;-75
2021/12/24 09:01:42;;;;;;;4.68;1.38;;;22.10;49.80;;;;;;5023442;28;20044;-75
2021/12/24 09:04:08;;;;;;;7.50;1.63;;;22.10;49.80;;;;;;5020812;28;20049;-74
2021/12/24 09:06:34;;;;;;;3.38;1.52;;;22.10;49.80;;;;;;5000797;28;20045;-76
2021/12/24 09:09:00;;;;;;;3.22;1.30;;;22.10;49.90;;;;;;5022521;28;20416;-70
2021/12/24 09:11:26;;;;;;;3.83;1.55;;;22.10;49.90;;;;;;5019290;28;20056;-76
2021/12/24 09:13:52;;;;;;;3.92;1.20;;;22.10;49.90;;;;;;5014439;28;20050;-75
2021/12/24 09:16:17;;;;;;;4.45;1.27;;;22.10;49.90;;;;;;5018195;28;20092;-76
2021/12/24 09:18:44;;;;;;;4.25;1.40;;;22.10;50.00;;;;;;5028112;28;20569;-76
2021/12/24 09:21:15;;;;;;;4.45;1.30;;;22.10;50.00;;;;;;5013218;28;20504;-75
2021/12/24 09:23:43;;;;;;;2.85;1.20;;;22.10;49.90;;;;;;5027151;28;20042;-73
2021/12/24 09:26:09;;;;;;;6.10;1.83;;;22.10;49.90;;;;;;5013232;28;20647;-76
2021/12/24 09:28:35;;;;;;;5.10;1.40;;;22.10;49.90;;;;;;4995473;28;20034;-67
2021/12/24 09:31:00;;;;;;;5.00;1.38;;;22.10;50.00;;;;;;5015842;28;20045;-75
2021/12/24 09:33:26;;;;;;;4.80;1.40;;;22.10;49.90;;;;;;5013667;28;20095;-71
2021/12/24 09:35:51;;;;;;;4.13;1.67;;;22.00;49.90;;;;;;5015321;28;20124;-74
2021/12/24 09:38:17;;;;;;;9.38;1.60;;;22.00;49.80;;;;;;5007609;28;20073;-74
2021/12/24 09:40:42;;;;;;;13.55;1.90;;;22.00;49.80;;;;;;5021326;28;20292;-73
2021/12/24 09:43:08;;;;;;;6.40;1.77;;;22.00;49.70;;;;;;5018824;28;20132;-68
2021/12/24 09:45:33;;;;;;;3.42;1.70;;;22.00;49.80;;;;;;5018816;28;20042;-72
2021/12/24 09:47:59;;;;;;;6.00;1.42;;;22.00;49.70;;;;;;5024103;28;20049;-65
2021/12/24 09:50:26;;;;;;;5.35;1.73;;;22.00;49.70;;;;;;5013699;28;20057;-71
2021/12/24 09:52:52;;;;;;;2.75;1.50;;;22.00;49.70;;;;;;5005664;28;20041;-70
2021/12/24 09:55:21;;;;;;;4.55;1.80;;;22.00;49.70;;;;;;5015471;28;20048;-74
2021/12/24 09:57:48;;;;;;;4.95;1.55;;;22.00;49.70;;;;;;5002251;28;20045;-69
2021/12/24 10:00:17;;;;;;;3.38;1.70;;;22.00;49.60;;;;;;5008096;28;20056;-73
2021/12/24 10:02:47;;;;;;;3.47;1.63;;;22.00;49.60;;;;;;5010566;28;20053;-74
2021/12/24 10:05:24;;;;;;;3.35;1.40;;;21.90;49.60;;;;;;5019000;28;20045;-72
2021/12/24 10:07:50;;;;;;;2.70;1.70;;;21.90;49.50;;;;;;5007011;28;20030;-74
2021/12/24 10:10:24;;;;;;;2.60;1.20;;;21.90;49.50;;;;;;5012386;28;20053;-73
2021/12/24 10:12:50;;;;;;;2.75;1.33;;;21.90;49.60;;;;;;5008171;28;20054;-74
2021/12/24 10:15:16;;;;;;;5.78;1.67;;;21.90;49.50;;;;;;5003764;28;20049;-72
2021/12/24 10:17:43;;;;;;;3.28;1.33;;;21.90;49.50;;;;;;5007970;28;20127;-71
2021/12/24 10:20:11;;;;;;;3.58;1.50;;;21.90;49.50;;;;;;5005047;28;20386;-72
2021/12/24 10:22:49;;;;;;;2.42;1.30;;;21.90;49.50;;;;;;5025372;28;20063;-73
2021/12/24 10:25:15;;;;;;;3.42;1.52;;;21.90;49.50;;;;;;5013005;28;20091;-73
2021/12/24 10:27:42;;;;;;;3.03;1.42;;;21.90;49.50;;;;;;5024077;28;20041;-72
2021/12/24 10:30:22;;;;;;;2.78;1.30;;;21.90;49.50;;;;;;5022695;28;20066;-75
2021/12/24 10:32:55;;;;;;;2.38;1.30;;;21.90;49.50;;;;;;5020534;28;20046;-76
2021/12/24 10:35:27;;;;;;;3.30;1.40;;;21.90;50.30;;;;;;5009205;28;20076;-72
2021/12/24 10:38:19;;;;;;;4.50;1.45;;;21.90;49.30;;;;;;5017384;28;20092;-75
2021/12/24 10:40:53;;;;;;;2.78;1.30;;;21.80;48.70;;;;;;5011107;28;20042;-74
2021/12/24 10:43:33;;;;;;;2.85;1.50;;;21.80;48.80;;;;;;5011534;28;20049;-76
2021/12/24 10:46:17;;;;;;;2.50;1.52;;;21.80;48.80;;;;;;5012367;28;20053;-76
2021/12/24 10:49:08;;;;;;;4.75;1.60;;;21.80;48.90;;;;;;5015109;28;20125;-79
2021/12/24 10:51:58;;;;;;;3.78;1.35;;;21.80;49.10;;;;;;5018049;28;20088;-74
2021/12/24 10:54:23;;;;;;;2.63;1.30;;;21.80;49.90;;;;;;5011876;28;20051;-74
2021/12/24 10:56:50;;;;;;;4.00;1.50;;;21.80;49.20;;;;;;5013248;28;20416;-75
2021/12/24 10:59:40;;;;;;;6.20;1.30;;;21.80;49.20;;;;;;5027293;28;20702;-76
2021/12/24 11:02:10;;;;;;;2.58;1.30;;;21.80;49.30;;;;;;5015267;28;20045;-78
2021/12/24 11:04:38;;;;;;;6.80;1.20;;;21.80;49.30;;;;;;5010937;28;20049;-76
2021/12/24 11:07:30;;;;;;;2.87;1.40;;;21.80;49.40;;;;;;5012833;28;20527;-76
2021/12/24 11:10:19;;;;;;;3.35;1.40;;;21.80;49.40;;;;;;5017141;28;20299;-75
2021/12/24 11:12:47;;;;;;;6.05;1.02;;;21.80;49.30;;;;;;5019937;28;20103;-76
2021/12/24 11:15:32;;;;;;;6.07;1.20;;;21.80;49.40;;;;;;5015960;28;20053;-75
2021/12/24 11:18:08;;;;;;;1.80;1.05;;;21.80;49.30;;;;;;5030810;28;20045;-78
2021/12/24 11:20:34;;;;;;;4.57;1.38;;;21.80;49.40;;;;;;5020781;28;20041;-74
2021/12/24 11:23:06;;;;;;;2.65;1.27;;;21.80;49.40;;;;;;5020566;28;20049;-78
2021/12/24 11:25:53;;;;;;;4.35;1.25;;;21.80;49.60;;;;;;5014515;28;20056;-75
2021/12/24 11:28:19;;;;;;;2.55;1.05;;;21.90;49.70;;;;;;5018203;28;20524;-77
2021/12/24 11:30:58;;;;;;;2.05;1.00;;;21.90;49.70;;;;;;5019655;28;20052;-76
2021/12/24 11:33:27;;;;;;;2.88;1.20;;;21.90;49.80;;;;;;5019580;28;20045;-79
2021/12/24 11:35:54;;;;;;;;;;;21.90;49.80;;;;;;5019074;28;20076;-76
2021/12/24 11:38:28;;;;;;;2.60;1.00;;;21.90;49.80;;;;;;5019312;28;19925;-76
2021/12/24 11:40:56;;;;;;;2.70;1.08;;;21.90;49.70;;;;;;5015730;28;20041;-74
2021/12/24 11:43:25;;;;;;;3.72;1.10;;;21.90;49.80;;;;;;5019290;28;20056;-74
2021/12/24 11:45:51;;;;;;;5.05;1.30;;;21.90;49.70;;;;;;5033700;28;20506;-78
2021/12/24 11:48:17;;;;;;;3.90;0.98;;;21.90;49.80;;;;;;5037687;28;20073;-76
2021/12/24 11:50:43;;;;;;;1.83;0.90;;;21.90;49.80;;;;;;5016694;28;20044;-75
2021/12/24 11:53:15;;;;;;;4.45;0.95;;;21.90;49.90;;;;;;5023541;28;20171;-73
2021/12/24 11:55:43;;;;;;;2.78;1.17;;;21.90;49.90;;;;;;5012169;28;20045;-77
2021/12/24 11:58:20;;;;;;;2.97;1.10;;;21.90;49.90;;;;;;5017164;28;20048;-75
2021/12/24 12:00:52;;;;;;;4.22;1.08;;;21.90;50.00;;;;;;5034016;28;20115;-76
2021/12/24 12:03:36;;;;;;;2.20;1.10;;;21.90;50.10;;;;;;5017793;28;20041;-76
2021/12/24 12:06:10;;;;;;;3.58;1.00;;;21.90;50.10;;;;;;5001255;28;20554;-72
2021/12/24 12:08:39;;;;;;;4.45;1.40;;;21.90;50.10;;;;;;5000105;28;20519;-74
2021/12/24 12:11:14;;;;;;;5.28;2.17;;;21.90;50.30;;;;;;5020859;28;20049;-73
2021/12/24 12:13:59;;;;;;;4.80;1.90;;;21.90;50.50;;;;;;5014637;28;20505;-75
2021/12/24 12:16:29;;;;;;;6.35;2.50;;;21.90;50.50;;;;;;5017141;28;20034;-74
2021/12/24 12:19:20;;;;;;;5.13;2.35;;;21.90;50.50;;;;;;5020436;28;20037;-71
2021/12/24 12:22:11;;;;;;;3.75;2.10;;;21.90;50.80;;;;;;5011577;28;20053;-74
2021/12/24 12:27:26;;;;;;;3.67;2.35;;;21.90;50.80;;;;;;5008419;28;20072;-76
2021/12/24 12:29:51;;;;;;;3.47;2.38;;;21.90;50.90;;;;;;5012863;28;20042;-76
2021/12/24 12:32:17;;;;;;;6.60;1.88;;;21.90;50.90;;;;;;5018452;28;20582;-71
2021/12/24 12:34:46;;;;;;;8.30;2.13;;;21.90;50.90;;;;;;5019121;28;20133;-78
2021/12/24 12:37:21;;;;;;;4.32;1.85;;;21.90;51.40;;;;;;5019309;28;20062;-75
2021/12/24 12:39:51;;;;;;;4.15;2.00;;;21.90;51.90;;;;;;5016890;28;20060;-81
2021/12/24 12:42:18;;;;;;;7.18;2.15;;;21.90;52.00;;;;;;5010668;28;20128;-74
2021/12/24 12:44:48;;;;;;;3.85;2.05;;;21.90;52.10;;;;;;5016175;28;20046;-75
2021/12/24 12:47:27;;;;;;;3.55;1.85;;;21.80;52.10;;;;;;5014679;28;20041;-75
2021/12/24 12:50:12;;;;;;;5.53;1.90;;;21.90;52.20;;;;;;5028175;28;20034;-72
2021/12/24 12:52:42;;;;;;;5.13;1.80;;;21.90;52.10;;;;;;5019283;28;20045;-71
2021/12/24 12:55:30;;;;;;;5.65;1.73;;;21.80;52.10;;;;;;5020260;28;20052;-74
2021/12/24 12:58:14;;;;;;;;;;;21.80;52.10;;;;;;5017621;28;20405;-70
2021/12/24 13:00:39;;;;;;;5.10;1.40;;;21.80;52.00;;;;;;5015210;28;20036;-71
2021/12/24 13:03:07;;;;;;;4.50;1.40;;;21.90;52.00;;;;;;5018753;28;20120;-75
2021/12/24 13:05:42;;;;;;;2.95;1.42;;;21.80;52.10;;;;;;5018077;28;20057;-77
2021/12/24 13:08:24;;;;;;;2.42;1.50;;;21.80;52.20;;;;;;5012262;28;20064;-78
2021/12/24 13:11:11;;;;;;;7.53;1.42;;;21.80;52.20;;;;;;5015074;28;20045;-80
2021/12/24 13:13:51;;;;;;;6.35;1.30;;;21.80;52.20;;;;;;5015555;28;20567;-77
2021/12/24 13:16:20;;;;;;;3.70;1.52;;;21.80;52.20;;;;;;5012362;28;20053;-78
2021/12/24 13:18:54;;;;;;;;;;;21.80;52.30;;;;;;5016247;28;20485;-77
2021/12/24 13:24:16;;;;;;;5.53;1.42;;;21.80;52.10;;;;;;5015546;28;20440;-76
2021/12/24 13:26:43;;;;;;;2.97;1.30;;;21.80;52.20;;;;;;5014053;28;20093;-77
2021/12/24 13:29:16;;;;;;;4.35;1.23;;;21.80;52.10;;;;;;5011701;28;20054;-79
2021/12/24 13:31:52;;;;;;;2.60;1.15;;;21.80;52.10;;;;;;5014127;28;20076;-73
2021/12/24 13:34:18;;;;;;;3.60;1.20;;;21.80;52.00;;;;;;5007566;28;20037;-78
2021/12/24 13:36:44;;;;;;;3.25;1.10;;;21.80;52.00;;;;;;5010072;28;20037;-76
2021/12/24 13:39:16;;;;;;;7.18;1.30;;;21.80;51.90;;;;;;5011927;28;20132;-76
2021/12/24 13:41:44;;;;;;;5.00;1.35;;;21.80;51.90;;;;;;5010639;28;20552;-73
2021/12/24 13:44:39;;;;;;;3.13;1.20;;;21.80;51.90;;;;;;5007689;28;20103;-72
2021/12/24 13:47:22;;;;;;;4.20;1.20;;;21.80;51.80;;;;;;4992878;28;20046;-75
2021/12/24 13:55:32;;;;;;;6.78;1.20;;;21.80;51.80;;;;;;5022232;28;20527;-74
2021/12/24 13:58:00;;;;;;;3.22;1.40;;;21.70;51.80;;;;;;5018880;28;20033;-75
2021/12/24 14:00:29;;;;;;;2.42;1.35;;;21.70;51.90;;;;;;5018040;28;20045;-75
2021/12/24 14:02:56;;;;;;;;;;;21.70;52.00;;;;;;5019460;28;20061;-74
2021/12/24 14:05:22;;;;;;;4.53;1.60;;;21.70;51.90;;;;;;5022373;28;19925;-75
2021/12/24 14:08:06;;;;;;;3.83;1.10;;;21.70;52.00;;;;;;5015631;28;20060;-75
2021/12/24 14:10:32;;;;;;;3.80;1.20;;;21.70;52.10;;;;;;5036622;28;20073;-74
2021/12/24 14:13:05;;;;;;;4.70;1.38;;;21.70;52.10;;;;;;5015795;28;20060;-75
2021/12/24 14:15:43;;;;;;;3.05;1.35;;;21.70;52.90;;;;;;5024736;28;20133;-75
2021/12/24 14:18:32;;;;;;;3.88;1.20;;;21.70;52.20;;;;;;5016366;28;20154;-74
2021/12/24 14:23:25;;;;;;;1.88;1.10;;;21.70;52.20;;;;;;5019005;28;20076;-70
2021/12/24 14:25:59;;;;;;;3.75;1.38;;;21.60;52.20;;;;;;5020383;28;20382;-71
2021/12/24 14:28:25;;;;;;;2.75;1.00;;;21.60;52.20;;;;;;5021996;28;20087;-75
2021/12/24 14:31:05;;;;;;;3.67;1.15;;;21.60;52.20;;;;;;5021939;28;20492;-72
2021/12/24 14:33:38;;;;;;;3.42;1.20;;;21.60;52.20;;;;;;5021052;28;20084;-75
2021/12/24 14:36:04;;;;;;;3.05;1.38;;;21.60;52.20;;;;;;5020035;28;20049;-75
2021/12/24 14:38:30;;;;;;;3.20;1.00;;;21.60;52.20;;;;;;5021686;28;20408;-73
2021/12/24 14:41:00;;;;;;;2.30;1.02;;;21.60;52.20;;;;;;5017939;28;20041;-74
2021/12/24 14:43:32;;;;;;;2.55;1.10;;;21.60;52.20;;;;;;5022611;28;20111;-76